sensor_id;sensor_type;location;lat;lon;timestamp;pressure;altitude;pressure_sealevel;temperature;humidity
18678;BME280;9469;51.114;13.914;2023-11-18T00:00:45;99302.28;;;4.76;100.00
18678;BME280;9469;51.114;13.914;2023-11-18T00:05:50;99312.88;;;4.81;100.00
18678;BME280;9469;51.114;13.914;2023-11-18T00:11:03;99316.00;;;4.78;100.00
18678;BME280;9469;51.114;13.914;2023-11-18T00:16:11;99321.13;;;4.89;100.00
18678;BME280;9469;51.114;13.914;2023-11-18T00:21:20;99327.22;;;4.68;100.00
18678;BME280;9469;51.114;13.914;2023-11-18T00:26:25;99335.19;;;4.52;100.00
18678;BME280;9469;51.114;13.914;2023-11-18T00:31:36;99339.53;;;4.63;100.00
18678;BME280;9469;51.114;13.914;2023-11-18T00:36:43;99348.56;;;4.67;100.00
18678;BME280;9469;51.114;13.914;2023-11-18T00:41:50;99364.19;;;4.52;100.00
18678;BME280;9469;51.114;13.914;2023-11-18T00:46:58;99361.38;;;4.58;100.00
18678;BME280;9469;51.114;13.914;2023-11-18T00:52:05;99377.34;;;4.52;100.00
18678;BME280;9469;51.114;13.914;2023-11-18T00:57:12;99391.38;;;4.57;100.00
18678;BME280;9469;51.114;13.914;2023-11-18T01:02:20;99384.16;;;4.48;100.00
18678;BME280;9469;51.114;13.914;2023-11-18T01:07:25;99397.72;;;4.40;100.00
18678;BME280;9469;51.114;13.914;2023-11-18T01:12:31;99394.69;;;4.48;100.00
18678;BME280;9469;51.114;13.914;2023-11-18T01:17:39;99402.41;;;4.54;100.00
18678;BME280;9469;51.114;13.914;2023-11-18T01:22:44;99412.41;;;4.74;100.00
18678;BME280;9469;51.114;13.914;2023-11-18T01:27:51;99408.34;;;4.45;100.00
18678;BME280;9469;51.114;13.914;2023-11-18T01:32:59;99411.28;;;4.48;100.00
18678;BME280;9469;51.114;13.914;2023-11-18T01:38:04;99415.19;;;4.46;100.00
18678;BME280;9469;51.114;13.914;2023-11-18T01:43:10;99413.34;;;4.24;100.00
18678;BME280;9469;51.114;13.914;2023-11-18T01:48:20;99421.44;;;4.23;100.00
18678;BME280;9469;51.114;13.914;2023-11-18T01:53:28;99420.81;;;4.32;100.00
18678;BME280;9469;51.114;13.914;2023-11-18T01:58:38;99425.72;;;4.46;100.00
18678;BME280;9469;51.114;13.914;2023-11-18T02:03:46;99428.34;;;4.24;100.00
18678;BME280;9469;51.114;13.914;2023-11-18T02:08:51;99429.34;;;4.23;100.00
18678;BME280;9469;51.114;13.914;2023-11-18T02:14:00;99435.69;;;4.22;100.00
18678;BME280;9469;51.114;13.914;2023-11-18T02:19:20;99443.28;;;4.02;100.00
18678;BME280;9469;51.114;13.914;2023-11-18T02:24:27;99451.63;;;3.99;100.00
18678;BME280;9469;51.114;13.914;2023-11-18T02:29:40;99443.50;;;4.00;100.00
18678;BME280;9469;51.114;13.914;2023-11-18T02:34:51;99439.09;;;3.89;100.00
18678;BME280;9469;51.114;13.914;2023-11-18T02:40:03;99437.41;;;4.16;100.00
18678;BME280;9469;51.114;13.914;2023-11-18T02:45:15;99449.88;;;4.04;100.00
18678;BME280;9469;51.114;13.914;2023-11-18T02:50:21;99441.91;;;4.16;100.00
18678;BME280;9469;51.114;13.914;2023-11-18T02:55:26;99444.28;;;4.01;100.00
18678;BME280;9469;51.114;13.914;2023-11-18T03:00:35;99433.84;;;4.06;100.00
18678;BME280;9469;51.114;13.914;2023-11-18T03:05:41;99437.78;;;3.87;100.00
18678;BME280;9469;51.114;13.914;2023-11-18T03:10:47;99446.19;;;3.72;100.00
18678;BME280;9469;51.114;13.914;2023-11-18T03:15:57;99442.69;;;3.83;100.00
18678;BME280;9469;51.114;13.914;2023-11-18T03:21:02;99445.22;;;3.78;100.00
18678;BME280;9469;51.114;13.914;2023-11-18T03:26:09;99443.31;;;3.74;100.00
18678;BME280;9469;51.114;13.914;2023-11-18T03:31:17;99443.81;;;3.71;100.00
18678;BME280;9469;51.114;13.914;2023-11-18T03:36:22;99451.31;;;3.79;100.00
18678;BME280;9469;51.114;13.914;2023-11-18T03:41:28;99457.03;;;3.76;100.00
18678;BME280;9469;51.114;13.914;2023-11-18T03:46:36;99465.03;;;3.81;100.00
18678;BME280;9469;51.114;13.914;2023-11-18T03:51:41;99467.09;;;4.12;100.00
18678;BME280;9469;51.114;13.914;2023-11-18T03:56:46;99467.75;;;3.86;100.00
18678;BME280;9469;51.114;13.914;2023-11-18T04:01:54;99465.50;;;3.78;100.00
18678;BME280;9469;51.114;13.914;2023-11-18T04:07:00;99469.09;;;3.88;100.00
18678;BME280;9469;51.114;13.914;2023-11-18T04:12:06;99465.59;;;3.99;100.00
18678;BME280;9469;51.114;13.914;2023-11-18T04:17:14;99466.28;;;3.78;100.00
18678;BME280;9469;51.114;13.914;2023-11-18T04:22:19;99475.25;;;4.10;100.00
18678;BME280;9469;51.114;13.914;2023-11-18T04:27:28;99473.16;;;3.96;100.00
18678;BME280;9469;51.114;13.914;2023-11-18T04:32:36;99478.41;;;3.96;100.00
18678;BME280;9469;51.114;13.914;2023-11-18T04:37:45;99493.59;;;3.89;100.00
18678;BME280;9469;51.114;13.914;2023-11-18T04:42:51;99489.44;;;3.93;100.00
18678;BME280;9469;51.114;13.914;2023-11-18T04:47:59;99490.47;;;3.92;100.00
18678;BME280;9469;51.114;13.914;2023-11-18T04:53:05;99499.31;;;3.86;100.00
18678;BME280;9469;51.114;13.914;2023-11-18T04:58:12;99495.34;;;3.83;100.00
18678;BME280;9469;51.114;13.914;2023-11-18T05:03:21;99500.28;;;3.96;100.00
18678;BME280;9469;51.114;13.914;2023-11-18T05:08:27;99497.72;;;3.85;100.00
18678;BME280;9469;51.114;13.914;2023-11-18T05:13:33;99494.03;;;3.69;100.00
18678;BME280;9469;51.114;13.914;2023-11-18T05:18:45;99498.81;;;3.72;100.00
18678;BME280;9469;51.114;13.914;2023-11-18T05:23:50;99505.41;;;3.86;100.00
18678;BME280;9469;51.114;13.914;2023-11-18T05:28:55;99506.81;;;3.94;100.00
18678;BME280;9469;51.114;13.914;2023-11-18T05:34:03;99510.41;;;3.88;100.00
18678;BME280;9469;51.114;13.914;2023-11-18T05:39:09;99510.41;;;3.88;100.00
18678;BME280;9469;51.114;13.914;2023-11-18T05:44:14;99518.84;;;4.18;100.00
18678;BME280;9469;51.114;13.914;2023-11-18T05:49:24;99515.47;;;4.06;100.00
18678;BME280;9469;51.114;13.914;2023-11-18T05:54:29;99514.34;;;4.35;100.00
18678;BME280;9469;51.114;13.914;2023-11-18T05:59:34;99518.56;;;4.03;100.00
18678;BME280;9469;51.114;13.914;2023-11-18T06:04:42;99524.53;;;3.98;100.00
18678;BME280;9469;51.114;13.914;2023-11-18T06:09:49;99529.53;;;4.11;100.00
18678;BME280;9469;51.114;13.914;2023-11-18T06:14:54;99526.75;;;3.90;100.00
18678;BME280;9469;51.114;13.914;2023-11-18T06:20:04;99530.06;;;3.97;100.00
18678;BME280;9469;51.114;13.914;2023-11-18T06:25:12;99536.84;;;3.93;100.00
18678;BME280;9469;51.114;13.914;2023-11-18T06:30:18;99540.59;;;3.97;100.00
18678;BME280;9469;51.114;13.914;2023-11-18T06:35:27;99535.16;;;4.03;100.00
18678;BME280;9469;51.114;13.914;2023-11-18T06:40:32;99541.22;;;4.04;100.00
18678;BME280;9469;51.114;13.914;2023-11-18T06:45:42;99540.03;;;3.95;100.00
18678;BME280;9469;51.114;13.914;2023-11-18T06:50:55;99535.63;;;3.84;100.00
18678;BME280;9469;51.114;13.914;2023-11-18T06:56:00;99544.88;;;3.86;100.00
18678;BME280;9469;51.114;13.914;2023-11-18T07:01:06;99552.38;;;3.94;100.00
18678;BME280;9469;51.114;13.914;2023-11-18T07:06:19;99559.84;;;3.86;100.00
18678;BME280;9469;51.114;13.914;2023-11-18T07:11:26;99557.84;;;4.04;100.00
18678;BME280;9469;51.114;13.914;2023-11-18T07:16:34;99561.84;;;4.23;100.00
18678;BME280;9469;51.114;13.914;2023-11-18T07:21:43;99572.94;;;4.25;100.00
18678;BME280;9469;51.114;13.914;2023-11-18T07:26:48;99572.00;;;4.48;100.00
18678;BME280;9469;51.114;13.914;2023-11-18T07:31:54;99581.63;;;4.26;100.00
18678;BME280;9469;51.114;13.914;2023-11-18T07:37:03;99579.97;;;4.20;100.00
18678;BME280;9469;51.114;13.914;2023-11-18T07:42:11;99574.13;;;4.18;100.00
18678;BME280;9469;51.114;13.914;2023-11-18T07:47:16;99574.13;;;4.34;100.00
18678;BME280;9469;51.114;13.914;2023-11-18T07:52:28;99582.47;;;4.43;100.00
18678;BME280;9469;51.114;13.914;2023-11-18T07:57:34;99592.19;;;4.43;100.00
18678;BME280;9469;51.114;13.914;2023-11-18T08:02:41;99598.34;;;4.31;100.00
18678;BME280;9469;51.114;13.914;2023-11-18T08:07:54;99608.88;;;4.48;100.00
18678;BME280;9469;51.114;13.914;2023-11-18T08:13:02;99617.69;;;4.70;100.00
18678;BME280;9469;51.114;13.914;2023-11-18T08:18:09;99627.81;;;4.78;100.00
18678;BME280;9469;51.114;13.914;2023-11-18T08:23:17;99626.63;;;4.69;100.00
18678;BME280;9469;51.114;13.914;2023-11-18T08:28:23;99622.25;;;5.30;100.00
18678;BME280;9469;51.114;13.914;2023-11-18T08:33:29;99622.78;;;4.60;100.00
18678;BME280;9469;51.114;13.914;2023-11-18T08:38:38;99634.28;;;4.87;100.00
18678;BME280;9469;51.114;13.914;2023-11-18T08:43:46;99639.81;;;4.86;100.00
18678;BME280;9469;51.114;13.914;2023-11-18T08:48:54;99639.91;;;5.29;100.00
18678;BME280;9469;51.114;13.914;2023-11-18T08:54:05;99647.44;;;5.21;100.00
18678;BME280;9469;51.114;13.914;2023-11-18T08:59:24;99644.34;;;5.07;100.00
18678;BME280;9469;51.114;13.914;2023-11-18T09:04:29;99643.16;;;5.15;100.00
18678;BME280;9469;51.114;13.914;2023-11-18T09:09:43;99649.34;;;5.42;100.00
18678;BME280;9469;51.114;13.914;2023-11-18T09:14:54;99664.00;;;5.16;100.00
18678;BME280;9469;51.114;13.914;2023-11-18T09:20:08;99656.81;;;5.12;100.00
18678;BME280;9469;51.114;13.914;2023-11-18T09:25:18;99665.81;;;5.32;100.00
18678;BME280;9469;51.114;13.914;2023-11-18T09:30:24;99664.84;;;5.38;100.00
18678;BME280;9469;51.114;13.914;2023-11-18T09:35:30;99679.16;;;5.42;100.00
18678;BME280;9469;51.114;13.914;2023-11-18T09:40:43;99676.63;;;5.69;100.00
18678;BME280;9469;51.114;13.914;2023-11-18T09:45:54;99660.38;;;5.39;100.00
18678;BME280;9469;51.114;13.914;2023-11-18T09:51:00;99666.28;;;5.84;100.00
18678;BME280;9469;51.114;13.914;2023-11-18T09:56:19;99661.34;;;5.93;100.00
18678;BME280;9469;51.114;13.914;2023-11-18T10:01:44;99670.13;;;6.20;100.00
18678;BME280;9469;51.114;13.914;2023-11-18T10:06:56;99667.91;;;6.12;100.00
18678;BME280;9469;51.114;13.914;2023-11-18T10:12:07;99667.09;;;6.60;100.00
18678;BME280;9469;51.114;13.914;2023-11-18T10:17:22;99654.56;;;5.97;100.00
18678;BME280;9469;51.114;13.914;2023-11-18T10:22:29;99654.84;;;6.00;100.00
18678;BME280;9469;51.114;13.914;2023-11-18T10:27:37;99650.28;;;6.44;100.00
18678;BME280;9469;51.114;13.914;2023-11-18T10:32:44;99654.84;;;6.53;100.00
18678;BME280;9469;51.114;13.914;2023-11-18T10:38:10;99651.72;;;6.03;100.00
18678;BME280;9469;51.114;13.914;2023-11-18T10:43:21;99668.41;;;6.30;100.00
18678;BME280;9469;51.114;13.914;2023-11-18T10:48:28;99664.06;;;6.46;100.00
18678;BME280;9469;51.114;13.914;2023-11-18T10:53:35;99662.38;;;6.35;100.00
18678;BME280;9469;51.114;13.914;2023-11-18T10:58:47;99658.44;;;6.42;100.00
18678;BME280;9469;51.114;13.914;2023-11-18T11:03:54;99660.53;;;6.67;100.00
18678;BME280;9469;51.114;13.914;2023-11-18T11:09:04;99652.78;;;6.29;100.00
18678;BME280;9469;51.114;13.914;2023-11-18T11:14:15;99652.63;;;6.40;100.00
18678;BME280;9469;51.114;13.914;2023-11-18T11:19:26;99655.38;;;6.50;100.00
18678;BME280;9469;51.114;13.914;2023-11-18T11:24:49;99647.09;;;6.69;100.00
18678;BME280;9469;51.114;13.914;2023-11-18T11:30:02;99657.06;;;6.62;100.00
18678;BME280;9469;51.114;13.914;2023-11-18T11:35:18;99675.53;;;6.30;100.00
18678;BME280;9469;51.114;13.914;2023-11-18T11:40:25;99670.09;;;6.41;100.00
18678;BME280;9469;51.114;13.914;2023-11-18T11:45:34;99658.75;;;6.19;100.00
18678;BME280;9469;51.114;13.914;2023-11-18T11:56:39;99649.69;;;6.64;100.00
18678;BME280;9469;51.114;13.914;2023-11-18T12:01:48;99638.13;;;6.16;100.00
18678;BME280;9469;51.114;13.914;2023-11-18T12:06:55;99640.72;;;6.65;98.17
18678;BME280;9469;51.114;13.914;2023-11-18T12:12:21;99626.50;;;6.44;98.78
18678;BME280;9469;51.114;13.914;2023-11-18T12:23:15;99616.03;;;6.91;95.57
18678;BME280;9469;51.114;13.914;2023-11-18T12:28:26;99621.34;;;6.59;95.93
18678;BME280;9469;51.114;13.914;2023-11-18T12:34:02;99612.22;;;6.77;95.23
18678;BME280;9469;51.114;13.914;2023-11-18T12:39:39;99601.44;;;6.83;95.27
18678;BME280;9469;51.114;13.914;2023-11-18T12:45:16;99584.84;;;6.93;92.27
18678;BME280;9469;51.114;13.914;2023-11-18T12:50:33;99600.34;;;7.16;89.96
18678;BME280;9469;51.114;13.914;2023-11-18T12:55:41;99595.09;;;7.21;87.21
18678;BME280;9469;51.114;13.914;2023-11-18T13:00:47;99582.94;;;7.25;81.87
18678;BME280;9469;51.114;13.914;2023-11-18T13:05:58;99584.63;;;7.46;78.99
18678;BME280;9469;51.114;13.914;2023-11-18T13:11:04;99575.69;;;7.67;76.53
18678;BME280;9469;51.114;13.914;2023-11-18T13:16:14;99577.25;;;7.58;76.19
18678;BME280;9469;51.114;13.914;2023-11-18T13:21:22;99569.88;;;7.70;79.00
18678;BME280;9469;51.114;13.914;2023-11-18T13:26:33;99571.44;;;7.61;81.61
18678;BME280;9469;51.114;13.914;2023-11-18T13:31:43;99556.66;;;7.75;82.29
18678;BME280;9469;51.114;13.914;2023-11-18T13:36:56;99570.84;;;7.49;83.59
18678;BME280;9469;51.114;13.914;2023-11-18T13:42:20;99579.88;;;7.53;86.28
18678;BME280;9469;51.114;13.914;2023-11-18T13:47:29;99583.03;;;7.45;86.57
18678;BME280;9469;51.114;13.914;2023-11-18T13:52:37;99558.47;;;7.03;89.79
18678;BME280;9469;51.114;13.914;2023-11-18T13:57:43;99572.22;;;7.05;92.11
18678;BME280;9469;51.114;13.914;2023-11-18T14:02:50;99575.38;;;7.02;90.56
18678;BME280;9469;51.114;13.914;2023-11-18T14:07:58;99581.97;;;6.63;92.80
18678;BME280;9469;51.114;13.914;2023-11-18T14:13:14;99580.34;;;6.57;95.70
18678;BME280;9469;51.114;13.914;2023-11-18T14:18:21;99565.63;;;6.66;94.59
18678;BME280;9469;51.114;13.914;2023-11-18T14:23:29;99579.09;;;7.01;92.14
18678;BME280;9469;51.114;13.914;2023-11-18T14:28:34;99585.50;;;7.10;90.86
18678;BME280;9469;51.114;13.914;2023-11-18T14:33:39;99584.34;;;6.96;90.63
18678;BME280;9469;51.114;13.914;2023-11-18T14:38:47;99569.16;;;7.23;90.12
18678;BME280;9469;51.114;13.914;2023-11-18T14:43:52;99559.66;;;7.27;89.01
18678;BME280;9469;51.114;13.914;2023-11-18T14:48:59;99567.66;;;6.95;91.15
18678;BME280;9469;51.114;13.914;2023-11-18T14:54:09;99556.16;;;7.21;91.44
18678;BME280;9469;51.114;13.914;2023-11-18T14:59:14;99550.97;;;6.90;91.91
18678;BME280;9469;51.114;13.914;2023-11-18T15:04:20;99537.56;;;6.28;94.91
18678;BME280;9469;51.114;13.914;2023-11-18T15:09:31;99527.28;;;6.00;94.67
18678;BME280;9469;51.114;13.914;2023-11-18T15:14:37;99523.59;;;5.79;93.42
18678;BME280;9469;51.114;13.914;2023-11-18T15:19:43;99526.66;;;5.93;91.95
18678;BME280;9469;51.114;13.914;2023-11-18T15:24:50;99533.91;;;6.02;93.35
18678;BME280;9469;51.114;13.914;2023-11-18T15:30:04;99540.44;;;6.21;93.32
18678;BME280;9469;51.114;13.914;2023-11-18T15:35:13;99508.44;;;5.43;94.80
18678;BME280;9469;51.114;13.914;2023-11-18T15:40:22;99504.81;;;5.49;95.13
18678;BME280;9469;51.114;13.914;2023-11-18T15:45:28;99492.66;;;5.48;95.25
18678;BME280;9469;51.114;13.914;2023-11-18T15:50:34;99483.09;;;5.42;95.75
18678;BME280;9469;51.114;13.914;2023-11-18T15:55:42;99503.94;;;5.43;96.01
18678;BME280;9469;51.114;13.914;2023-11-18T16:00:54;99495.06;;;5.28;98.93
18678;BME280;9469;51.114;13.914;2023-11-18T16:06:00;99499.81;;;5.04;100.00
18678;BME280;9469;51.114;13.914;2023-11-18T16:11:11;99492.69;;;4.66;100.00
18678;BME280;9469;51.114;13.914;2023-11-18T16:16:16;99479.22;;;4.46;100.00
18678;BME280;9469;51.114;13.914;2023-11-18T16:21:21;99475.72;;;4.24;100.00
18678;BME280;9469;51.114;13.914;2023-11-18T16:26:31;99467.03;;;3.90;100.00
18678;BME280;9469;51.114;13.914;2023-11-18T16:31:38;99467.34;;;3.49;100.00
18678;BME280;9469;51.114;13.914;2023-11-18T16:36:46;99446.28;;;3.32;100.00
18678;BME280;9469;51.114;13.914;2023-11-18T16:41:54;99449.44;;;3.06;100.00
18678;BME280;9469;51.114;13.914;2023-11-18T16:46:59;99460.25;;;3.21;100.00
18678;BME280;9469;51.114;13.914;2023-11-18T16:52:06;99442.50;;;3.00;100.00
18678;BME280;9469;51.114;13.914;2023-11-18T16:57:13;99443.91;;;2.91;100.00
18678;BME280;9469;51.114;13.914;2023-11-18T17:02:18;99449.00;;;2.98;100.00
18678;BME280;9469;51.114;13.914;2023-11-18T17:07:28;99455.22;;;2.92;100.00
18678;BME280;9469;51.114;13.914;2023-11-18T17:12:36;99442.44;;;2.72;100.00
18678;BME280;9469;51.114;13.914;2023-11-18T17:17:42;99430.78;;;2.68;100.00
18678;BME280;9469;51.114;13.914;2023-11-18T17:22:49;99425.84;;;2.83;100.00
18678;BME280;9469;51.114;13.914;2023-11-18T17:27:56;99420.41;;;2.73;100.00
18678;BME280;9469;51.114;13.914;2023-11-18T17:33:03;99426.47;;;2.73;100.00
18678;BME280;9469;51.114;13.914;2023-11-18T17:38:08;99434.91;;;2.64;100.00
18678;BME280;9469;51.114;13.914;2023-11-18T17:43:18;99444.59;;;2.75;100.00
18678;BME280;9469;51.114;13.914;2023-11-18T17:48:26;99416.66;;;2.57;100.00
18678;BME280;9469;51.114;13.914;2023-11-18T17:53:36;99404.97;;;2.65;100.00
18678;BME280;9469;51.114;13.914;2023-11-18T17:58:44;99386.03;;;2.63;100.00
18678;BME280;9469;51.114;13.914;2023-11-18T18:03:51;99407.53;;;2.60;100.00
18678;BME280;9469;51.114;13.914;2023-11-18T18:08:56;99388.75;;;2.79;100.00
18678;BME280;9469;51.114;13.914;2023-11-18T18:14:05;99388.50;;;2.81;100.00
18678;BME280;9469;51.114;13.914;2023-11-18T18:19:10;99367.81;;;2.84;100.00
18678;BME280;9469;51.114;13.914;2023-11-18T18:24:15;99365.22;;;3.01;100.00
18678;BME280;9469;51.114;13.914;2023-11-18T18:29:24;99349.97;;;3.15;100.00
18678;BME280;9469;51.114;13.914;2023-11-18T18:34:31;99353.09;;;3.12;100.00
18678;BME280;9469;51.114;13.914;2023-11-18T18:39:36;99338.09;;;3.12;100.00
18678;BME280;9469;51.114;13.914;2023-11-18T18:44:44;99330.00;;;3.14;100.00
18678;BME280;9469;51.114;13.914;2023-11-18T18:49:50;99306.63;;;3.17;100.00
18678;BME280;9469;51.114;13.914;2023-11-18T18:54:57;99301.00;;;3.25;100.00
18678;BME280;9469;51.114;13.914;2023-11-18T19:00:10;99299.81;;;3.49;100.00
18678;BME280;9469;51.114;13.914;2023-11-18T19:05:15;99283.94;;;3.78;100.00
18678;BME280;9469;51.114;13.914;2023-11-18T19:10:25;99299.13;;;3.92;100.00
18678;BME280;9469;51.114;13.914;2023-11-18T19:15:36;99302.06;;;3.96;100.00
18678;BME280;9469;51.114;13.914;2023-11-18T19:20:41;99289.13;;;3.73;100.00
18678;BME280;9469;51.114;13.914;2023-11-18T19:25:47;99286.25;;;3.96;100.00
18678;BME280;9469;51.114;13.914;2023-11-18T19:30:55;99256.56;;;3.79;100.00
18678;BME280;9469;51.114;13.914;2023-11-18T19:36:00;99270.31;;;4.02;100.00
18678;BME280;9469;51.114;13.914;2023-11-18T19:41:06;99258.25;;;4.06;100.00
18678;BME280;9469;51.114;13.914;2023-11-18T19:46:15;99256.59;;;4.00;100.00
18678;BME280;9469;51.114;13.914;2023-11-18T19:51:25;99260.34;;;4.04;100.00
18678;BME280;9469;51.114;13.914;2023-11-18T19:56:31;99233.50;;;4.07;100.00
18678;BME280;9469;51.114;13.914;2023-11-18T20:01:42;99250.78;;;4.20;100.00
18678;BME280;9469;51.114;13.914;2023-11-18T20:06:50;99253.50;;;4.25;100.00
18678;BME280;9469;51.114;13.914;2023-11-18T20:11:55;99250.78;;;4.20;100.00
18678;BME280;9469;51.114;13.914;2023-11-18T20:17:06;99227.75;;;4.10;100.00
18678;BME280;9469;51.114;13.914;2023-11-18T20:22:12;99235.22;;;4.18;100.00
18678;BME280;9469;51.114;13.914;2023-11-18T20:27:19;99212.78;;;4.11;100.00
18678;BME280;9469;51.114;13.914;2023-11-18T20:32:29;99205.09;;;4.09;100.00
18678;BME280;9469;51.114;13.914;2023-11-18T20:37:36;99200.16;;;4.13;100.00
18678;BME280;9469;51.114;13.914;2023-11-18T20:42:41;99212.19;;;4.30;100.00
18678;BME280;9469;51.114;13.914;2023-11-18T20:47:49;99195.03;;;4.28;100.00
18678;BME280;9469;51.114;13.914;2023-11-18T20:52:54;99194.81;;;4.29;100.00
18678;BME280;9469;51.114;13.914;2023-11-18T20:58:00;99187.16;;;4.28;100.00
18678;BME280;9469;51.114;13.914;2023-11-18T21:03:08;99164.50;;;4.27;100.00
18678;BME280;9469;51.114;13.914;2023-11-18T21:08:14;99171.69;;;4.36;100.00
18678;BME280;9469;51.114;13.914;2023-11-18T21:13:19;99151.06;;;4.28;100.00
18678;BME280;9469;51.114;13.914;2023-11-18T21:18:30;99135.06;;;4.35;100.00
18678;BME280;9469;51.114;13.914;2023-11-18T21:23:35;99135.47;;;4.22;100.00
18678;BME280;9469;51.114;13.914;2023-11-18T21:28:41;99142.09;;;4.03;100.00
18678;BME280;9469;51.114;13.914;2023-11-18T21:33:49;99129.66;;;3.93;100.00
18678;BME280;9469;51.114;13.914;2023-11-18T21:38:54;99131.53;;;3.98;100.00
18678;BME280;9469;51.114;13.914;2023-11-18T21:44:04;99129.50;;;4.05;100.00
18678;BME280;9469;51.114;13.914;2023-11-18T21:49:15;99104.97;;;3.99;100.00
18678;BME280;9469;51.114;13.914;2023-11-18T21:54:20;99099.78;;;4.09;100.00
18678;BME280;9469;51.114;13.914;2023-11-18T21:59:30;99087.81;;;3.97;100.00
18678;BME280;9469;51.114;13.914;2023-11-18T22:04:38;99074.66;;;3.97;100.00
18678;BME280;9469;51.114;13.914;2023-11-18T22:09:43;99071.09;;;4.08;100.00
18678;BME280;9469;51.114;13.914;2023-11-18T22:14:49;99058.03;;;4.18;100.00
18678;BME280;9469;51.114;13.914;2023-11-18T22:19:59;99046.78;;;4.27;100.00
18678;BME280;9469;51.114;13.914;2023-11-18T22:25:10;99041.88;;;4.36;100.00
18678;BME280;9469;51.114;13.914;2023-11-18T22:30:17;99039.81;;;4.43;100.00
18678;BME280;9469;51.114;13.914;2023-11-18T22:35:29;99034.03;;;4.46;100.00
18678;BME280;9469;51.114;13.914;2023-11-18T22:40:35;99043.47;;;4.42;100.00
18678;BME280;9469;51.114;13.914;2023-11-18T22:45:40;99027.19;;;4.50;100.00
18678;BME280;9469;51.114;13.914;2023-11-18T22:50:51;99031.69;;;4.50;100.00
18678;BME280;9469;51.114;13.914;2023-11-18T22:55:56;99020.38;;;4.49;100.00
18678;BME280;9469;51.114;13.914;2023-11-18T23:01:04;99007.44;;;4.48;100.00
18678;BME280;9469;51.114;13.914;2023-11-18T23:06:16;99019.09;;;4.57;100.00
18678;BME280;9469;51.114;13.914;2023-11-18T23:11:25;99000.81;;;4.40;100.00
18678;BME280;9469;51.114;13.914;2023-11-18T23:16:31;98994.78;;;4.45;100.00
18678;BME280;9469;51.114;13.914;2023-11-18T23:21:39;99007.25;;;4.59;100.00
18678;BME280;9469;51.114;13.914;2023-11-18T23:26:44;98977.38;;;4.44;100.00
18678;BME280;9469;51.114;13.914;2023-11-18T23:31:49;98949.97;;;4.40;100.00
18678;BME280;9469;51.114;13.914;2023-11-18T23:36:59;98926.94;;;4.20;100.00
18678;BME280;9469;51.114;13.914;2023-11-18T23:42:06;98931.94;;;4.21;100.00
18678;BME280;9469;51.114;13.914;2023-11-18T23:47:12;98896.31;;;4.14;100.00
18678;BME280;9469;51.114;13.914;2023-11-18T23:52:20;98866.78;;;4.02;100.00
18678;BME280;9469;51.114;13.914;2023-11-18T23:57:26;98857.78;;;3.93;100.00
